sensor_id;sensor_type;location;lat;lon;timestamp;P1;durP1;ratioP1;P2;durP2;ratioP2
21254;SDS011;10785;50.674;17.954;2022-07-06T00:00:33;29.80;;;23.98;;
21254;SDS011;10785;50.674;17.954;2022-07-06T00:03:02;24.67;;;21.95;;
21254;SDS011;10785;50.674;17.954;2022-07-06T00:05:31;28.27;;;22.52;;
21254;SDS011;10785;50.674;17.954;2022-07-06T00:08:01;24.48;;;21.70;;
21254;SDS011;10785;50.674;17.954;2022-07-06T00:10:29;24.33;;;21.13;;
21254;SDS011;10785;50.674;17.954;2022-07-06T00:12:58;22.52;;;20.33;;
21254;SDS011;10785;50.674;17.954;2022-07-06T00:15:28;22.73;;;20.42;;
21254;SDS011;10785;50.674;17.954;2022-07-06T00:17:57;22.85;;;20.20;;
21254;SDS011;10785;50.674;17.954;2022-07-06T00:20:26;22.70;;;19.50;;
21254;SDS011;10785;50.674;17.954;2022-07-06T00:22:54;23.92;;;21.45;;
21254;SDS011;10785;50.674;17.954;2022-07-06T00:25:23;24.00;;;20.50;;
21254;SDS011;10785;50.674;17.954;2022-07-06T00:27:52;24.75;;;21.38;;
21254;SDS011;10785;50.674;17.954;2022-07-06T00:30:21;24.13;;;21.65;;
21254;SDS011;10785;50.674;17.954;2022-07-06T00:32:51;27.50;;;22.67;;
21254;SDS011;10785;50.674;17.954;2022-07-06T00:35:19;25.27;;;22.58;;
21254;SDS011;10785;50.674;17.954;2022-07-06T00:37:49;28.08;;;25.08;;
21254;SDS011;10785;50.674;17.954;2022-07-06T00:40:19;30.98;;;25.55;;
21254;SDS011;10785;50.674;17.954;2022-07-06T00:42:48;35.42;;;30.13;;
21254;SDS011;10785;50.674;17.954;2022-07-06T00:45:17;59.13;;;30.75;;
21254;SDS011;10785;50.674;17.954;2022-07-06T00:47:46;40.17;;;29.48;;
21254;SDS011;10785;50.674;17.954;2022-07-06T00:50:17;69.40;;;33.45;;
21254;SDS011;10785;50.674;17.954;2022-07-06T00:52:48;121.25;;;38.55;;
21254;SDS011;10785;50.674;17.954;2022-07-06T00:55:19;39.17;;;31.35;;
21254;SDS011;10785;50.674;17.954;2022-07-06T00:57:50;46.55;;;33.75;;
21254;SDS011;10785;50.674;17.954;2022-07-06T01:00:20;36.55;;;32.05;;
21254;SDS011;10785;50.674;17.954;2022-07-06T01:02:50;34.30;;;30.48;;
21254;SDS011;10785;50.674;17.954;2022-07-06T01:05:21;34.28;;;30.70;;
21254;SDS011;10785;50.674;17.954;2022-07-06T01:07:52;32.53;;;29.13;;
21254;SDS011;10785;50.674;17.954;2022-07-06T01:10:21;32.10;;;28.65;;
21254;SDS011;10785;50.674;17.954;2022-07-06T01:12:51;32.88;;;28.45;;
21254;SDS011;10785;50.674;17.954;2022-07-06T01:15:20;35.03;;;30.50;;
21254;SDS011;10785;50.674;17.954;2022-07-06T01:17:51;34.15;;;28.70;;
21254;SDS011;10785;50.674;17.954;2022-07-06T01:20:26;30.80;;;26.58;;
21254;SDS011;10785;50.674;17.954;2022-07-06T01:22:58;30.63;;;27.33;;
21254;SDS011;10785;50.674;17.954;2022-07-06T01:25:27;33.13;;;27.95;;
21254;SDS011;10785;50.674;17.954;2022-07-06T01:27:56;32.38;;;27.42;;
21254;SDS011;10785;50.674;17.954;2022-07-06T01:30:25;34.40;;;29.23;;
21254;SDS011;10785;50.674;17.954;2022-07-06T01:32:55;32.85;;;29.30;;
21254;SDS011;10785;50.674;17.954;2022-07-06T01:35:23;31.10;;;27.23;;
21254;SDS011;10785;50.674;17.954;2022-07-06T01:37:58;32.70;;;28.48;;
21254;SDS011;10785;50.674;17.954;2022-07-06T01:40:26;31.95;;;28.00;;
21254;SDS011;10785;50.674;17.954;2022-07-06T01:42:56;33.80;;;27.73;;
21254;SDS011;10785;50.674;17.954;2022-07-06T01:45:25;32.88;;;28.65;;
21254;SDS011;10785;50.674;17.954;2022-07-06T01:47:53;36.20;;;29.95;;
21254;SDS011;10785;50.674;17.954;2022-07-06T01:50:22;38.75;;;32.25;;
21254;SDS011;10785;50.674;17.954;2022-07-06T01:52:51;43.08;;;32.25;;
21254;SDS011;10785;50.674;17.954;2022-07-06T01:55:21;42.88;;;33.35;;
21254;SDS011;10785;50.674;17.954;2022-07-06T01:57:49;45.60;;;34.20;;
21254;SDS011;10785;50.674;17.954;2022-07-06T02:00:19;48.00;;;35.20;;
21254;SDS011;10785;50.674;17.954;2022-07-06T02:02:49;54.92;;;37.35;;
21254;SDS011;10785;50.674;17.954;2022-07-06T02:05:18;57.35;;;37.95;;
21254;SDS011;10785;50.674;17.954;2022-07-06T02:07:48;55.85;;;37.50;;
21254;SDS011;10785;50.674;17.954;2022-07-06T02:10:17;49.53;;;37.80;;
21254;SDS011;10785;50.674;17.954;2022-07-06T02:12:47;49.53;;;34.42;;
21254;SDS011;10785;50.674;17.954;2022-07-06T02:15:17;44.97;;;31.00;;
21254;SDS011;10785;50.674;17.954;2022-07-06T02:17:46;47.90;;;33.65;;
21254;SDS011;10785;50.674;17.954;2022-07-06T02:20:15;52.50;;;35.72;;
21254;SDS011;10785;50.674;17.954;2022-07-06T02:22:44;46.80;;;32.15;;
21254;SDS011;10785;50.674;17.954;2022-07-06T02:25:13;49.97;;;34.88;;
21254;SDS011;10785;50.674;17.954;2022-07-06T02:27:42;49.67;;;34.85;;
21254;SDS011;10785;50.674;17.954;2022-07-06T02:30:13;48.60;;;35.40;;
21254;SDS011;10785;50.674;17.954;2022-07-06T02:32:42;52.38;;;37.22;;
21254;SDS011;10785;50.674;17.954;2022-07-06T02:35:11;54.80;;;36.80;;
21254;SDS011;10785;50.674;17.954;2022-07-06T02:37:40;49.50;;;32.53;;
21254;SDS011;10785;50.674;17.954;2022-07-06T02:40:10;50.17;;;36.00;;
21254;SDS011;10785;50.674;17.954;2022-07-06T02:42:39;44.28;;;34.25;;
21254;SDS011;10785;50.674;17.954;2022-07-06T02:45:09;45.63;;;34.58;;
21254;SDS011;10785;50.674;17.954;2022-07-06T02:47:40;42.63;;;32.83;;
21254;SDS011;10785;50.674;17.954;2022-07-06T02:50:11;42.00;;;32.40;;
21254;SDS011;10785;50.674;17.954;2022-07-06T02:52:40;49.03;;;33.47;;
21254;SDS011;10785;50.674;17.954;2022-07-06T02:55:10;45.85;;;32.42;;
21254;SDS011;10785;50.674;17.954;2022-07-06T02:57:40;40.65;;;31.60;;
21254;SDS011;10785;50.674;17.954;2022-07-06T03:00:12;42.85;;;32.33;;
21254;SDS011;10785;50.674;17.954;2022-07-06T03:02:44;46.35;;;32.00;;
21254;SDS011;10785;50.674;17.954;2022-07-06T03:05:12;42.15;;;31.23;;
21254;SDS011;10785;50.674;17.954;2022-07-06T03:07:41;46.55;;;33.70;;
21254;SDS011;10785;50.674;17.954;2022-07-06T03:10:11;50.47;;;34.45;;
21254;SDS011;10785;50.674;17.954;2022-07-06T03:12:40;45.85;;;35.25;;
21254;SDS011;10785;50.674;17.954;2022-07-06T03:15:09;40.25;;;32.13;;
21254;SDS011;10785;50.674;17.954;2022-07-06T03:17:44;31.92;;;26.23;;
21254;SDS011;10785;50.674;17.954;2022-07-06T03:20:15;34.45;;;21.25;;
21254;SDS011;10785;50.674;17.954;2022-07-06T03:22:46;23.63;;;19.38;;
21254;SDS011;10785;50.674;17.954;2022-07-06T03:25:17;26.10;;;16.85;;
21254;SDS011;10785;50.674;17.954;2022-07-06T03:27:46;23.10;;;17.30;;
21254;SDS011;10785;50.674;17.954;2022-07-06T03:30:17;22.52;;;14.13;;
21254;SDS011;10785;50.674;17.954;2022-07-06T03:32:53;20.20;;;12.98;;
21254;SDS011;10785;50.674;17.954;2022-07-06T03:35:23;17.15;;;12.52;;
21254;SDS011;10785;50.674;17.954;2022-07-06T03:37:54;26.27;;;12.27;;
21254;SDS011;10785;50.674;17.954;2022-07-06T03:40:27;11.85;;;10.63;;
21254;SDS011;10785;50.674;17.954;2022-07-06T03:42:56;15.68;;;11.13;;
21254;SDS011;10785;50.674;17.954;2022-07-06T03:45:27;13.65;;;9.10;;
21254;SDS011;10785;50.674;17.954;2022-07-06T03:47:58;10.15;;;9.13;;
21254;SDS011;10785;50.674;17.954;2022-07-06T03:50:26;9.68;;;8.68;;
21254;SDS011;10785;50.674;17.954;2022-07-06T03:52:55;11.18;;;9.40;;
21254;SDS011;10785;50.674;17.954;2022-07-06T03:55:24;11.82;;;9.70;;
21254;SDS011;10785;50.674;17.954;2022-07-06T03:57:57;15.15;;;9.40;;
21254;SDS011;10785;50.674;17.954;2022-07-06T04:00:33;14.13;;;8.13;;
21254;SDS011;10785;50.674;17.954;2022-07-06T04:03:08;12.52;;;8.57;;
21254;SDS011;10785;50.674;17.954;2022-07-06T04:05:42;14.57;;;8.93;;
21254;SDS011;10785;50.674;17.954;2022-07-06T04:08:12;10.05;;;8.00;;
21254;SDS011;10785;50.674;17.954;2022-07-06T04:10:46;11.40;;;8.75;;
21254;SDS011;10785;50.674;17.954;2022-07-06T04:13:15;13.13;;;8.85;;
21254;SDS011;10785;50.674;17.954;2022-07-06T04:15:44;12.95;;;8.75;;
21254;SDS011;10785;50.674;17.954;2022-07-06T04:18:14;16.17;;;9.10;;
21254;SDS011;10785;50.674;17.954;2022-07-06T04:20:49;16.85;;;9.45;;
21254;SDS011;10785;50.674;17.954;2022-07-06T04:23:18;13.98;;;10.70;;
21254;SDS011;10785;50.674;17.954;2022-07-06T04:25:48;14.30;;;9.18;;
21254;SDS011;10785;50.674;17.954;2022-07-06T04:28:17;13.88;;;9.60;;
21254;SDS011;10785;50.674;17.954;2022-07-06T04:30:47;12.18;;;9.40;;
21254;SDS011;10785;50.674;17.954;2022-07-06T04:33:20;10.10;;;8.38;;
21254;SDS011;10785;50.674;17.954;2022-07-06T04:35:49;8.32;;;6.90;;
21254;SDS011;10785;50.674;17.954;2022-07-06T04:38:23;13.63;;;7.75;;
21254;SDS011;10785;50.674;17.954;2022-07-06T04:40:56;9.98;;;7.80;;
21254;SDS011;10785;50.674;17.954;2022-07-06T04:43:25;9.00;;;7.25;;
21254;SDS011;10785;50.674;17.954;2022-07-06T04:45:54;13.15;;;7.97;;
21254;SDS011;10785;50.674;17.954;2022-07-06T04:48:24;9.40;;;8.50;;
21254;SDS011;10785;50.674;17.954;2022-07-06T04:50:53;10.98;;;8.65;;
21254;SDS011;10785;50.674;17.954;2022-07-06T04:53:27;15.13;;;8.82;;
21254;SDS011;10785;50.674;17.954;2022-07-06T04:55:56;15.82;;;8.88;;
21254;SDS011;10785;50.674;17.954;2022-07-06T04:58:26;15.95;;;9.27;;
21254;SDS011;10785;50.674;17.954;2022-07-06T05:00:55;23.98;;;9.35;;
21254;SDS011;10785;50.674;17.954;2022-07-06T05:03:26;14.88;;;10.15;;
21254;SDS011;10785;50.674;17.954;2022-07-06T05:05:55;17.17;;;9.18;;
21254;SDS011;10785;50.674;17.954;2022-07-06T05:08:24;15.05;;;9.73;;
21254;SDS011;10785;50.674;17.954;2022-07-06T05:10:53;14.10;;;9.45;;
21254;SDS011;10785;50.674;17.954;2022-07-06T05:13:22;13.10;;;9.85;;
21254;SDS011;10785;50.674;17.954;2022-07-06T05:15:51;20.65;;;10.38;;
21254;SDS011;10785;50.674;17.954;2022-07-06T05:18:19;14.27;;;9.75;;
21254;SDS011;10785;50.674;17.954;2022-07-06T05:20:50;13.48;;;9.52;;
21254;SDS011;10785;50.674;17.954;2022-07-06T05:23:20;19.35;;;9.88;;
21254;SDS011;10785;50.674;17.954;2022-07-06T05:25:48;21.38;;;9.50;;
21254;SDS011;10785;50.674;17.954;2022-07-06T05:28:17;17.73;;;9.10;;
21254;SDS011;10785;50.674;17.954;2022-07-06T05:30:46;19.33;;;9.30;;
21254;SDS011;10785;50.674;17.954;2022-07-06T05:33:16;13.48;;;10.63;;
21254;SDS011;10785;50.674;17.954;2022-07-06T05:35:45;15.20;;;9.73;;
21254;SDS011;10785;50.674;17.954;2022-07-06T05:38:22;11.70;;;9.23;;
21254;SDS011;10785;50.674;17.954;2022-07-06T05:40:52;12.77;;;10.73;;
21254;SDS011;10785;50.674;17.954;2022-07-06T05:43:21;20.23;;;10.73;;
21254;SDS011;10785;50.674;17.954;2022-07-06T05:45:51;13.68;;;10.70;;
21254;SDS011;10785;50.674;17.954;2022-07-06T05:48:22;14.82;;;13.27;;
21254;SDS011;10785;50.674;17.954;2022-07-06T05:51:09;11.05;;;8.93;;
21254;SDS011;10785;50.674;17.954;2022-07-06T05:53:43;10.32;;;9.32;;
21254;SDS011;10785;50.674;17.954;2022-07-06T05:56:11;14.77;;;9.88;;
21254;SDS011;10785;50.674;17.954;2022-07-06T05:58:41;12.95;;;9.27;;
21254;SDS011;10785;50.674;17.954;2022-07-06T06:01:10;11.63;;;10.45;;
21254;SDS011;10785;50.674;17.954;2022-07-06T06:03:45;12.88;;;11.60;;
21254;SDS011;10785;50.674;17.954;2022-07-06T06:06:13;12.77;;;10.77;;
21254;SDS011;10785;50.674;17.954;2022-07-06T06:08:44;14.77;;;11.02;;
21254;SDS011;10785;50.674;17.954;2022-07-06T06:11:12;17.02;;;15.15;;
21254;SDS011;10785;50.674;17.954;2022-07-06T06:13:42;12.43;;;9.88;;
21254;SDS011;10785;50.674;17.954;2022-07-06T06:16:11;9.23;;;5.80;;
21254;SDS011;10785;50.674;17.954;2022-07-06T06:18:40;8.10;;;6.65;;
21254;SDS011;10785;50.674;17.954;2022-07-06T06:21:09;7.70;;;6.72;;
21254;SDS011;10785;50.674;17.954;2022-07-06T06:23:38;12.88;;;6.32;;
21254;SDS011;10785;50.674;17.954;2022-07-06T06:26:08;10.38;;;6.40;;
21254;SDS011;10785;50.674;17.954;2022-07-06T06:28:38;7.45;;;5.70;;
21254;SDS011;10785;50.674;17.954;2022-07-06T06:31:08;7.43;;;5.68;;
21254;SDS011;10785;50.674;17.954;2022-07-06T06:33:37;9.57;;;7.93;;
21254;SDS011;10785;50.674;17.954;2022-07-06T06:36:06;15.50;;;13.43;;
21254;SDS011;10785;50.674;17.954;2022-07-06T06:38:35;12.95;;;11.00;;
21254;SDS011;10785;50.674;17.954;2022-07-06T06:41:04;30.35;;;26.92;;
21254;SDS011;10785;50.674;17.954;2022-07-06T06:43:34;36.67;;;32.78;;
21254;SDS011;10785;50.674;17.954;2022-07-06T06:46:26;23.65;;;21.15;;
21254;SDS011;10785;50.674;17.954;2022-07-06T06:48:55;19.73;;;15.63;;
21254;SDS011;10785;50.674;17.954;2022-07-06T06:51:23;15.68;;;13.50;;
21254;SDS011;10785;50.674;17.954;2022-07-06T06:53:52;17.02;;;12.88;;
21254;SDS011;10785;50.674;17.954;2022-07-06T06:56:21;15.73;;;13.88;;
21254;SDS011;10785;50.674;17.954;2022-07-06T06:58:51;20.08;;;13.50;;
21254;SDS011;10785;50.674;17.954;2022-07-06T07:01:40;17.90;;;13.77;;
21254;SDS011;10785;50.674;17.954;2022-07-06T07:04:09;14.88;;;13.43;;
21254;SDS011;10785;50.674;17.954;2022-07-06T07:06:39;14.18;;;12.68;;
21254;SDS011;10785;50.674;17.954;2022-07-06T07:09:07;12.27;;;11.00;;
21254;SDS011;10785;50.674;17.954;2022-07-06T07:11:37;12.98;;;11.60;;
21254;SDS011;10785;50.674;17.954;2022-07-06T07:14:07;12.95;;;11.68;;
21254;SDS011;10785;50.674;17.954;2022-07-06T07:16:36;12.80;;;10.32;;
21254;SDS011;10785;50.674;17.954;2022-07-06T07:19:05;11.43;;;10.20;;
21254;SDS011;10785;50.674;17.954;2022-07-06T07:21:33;12.15;;;10.32;;
21254;SDS011;10785;50.674;17.954;2022-07-06T07:24:02;11.02;;;9.98;;
21254;SDS011;10785;50.674;17.954;2022-07-06T07:26:36;12.18;;;11.00;;
21254;SDS011;10785;50.674;17.954;2022-07-06T07:29:06;11.10;;;9.80;;
21254;SDS011;10785;50.674;17.954;2022-07-06T07:31:35;13.32;;;11.68;;
21254;SDS011;10785;50.674;17.954;2022-07-06T07:34:04;19.92;;;10.73;;
21254;SDS011;10785;50.674;17.954;2022-07-06T07:36:33;14.07;;;10.10;;
21254;SDS011;10785;50.674;17.954;2022-07-06T07:39:02;14.63;;;12.55;;
21254;SDS011;10785;50.674;17.954;2022-07-06T07:41:32;21.58;;;16.35;;
21254;SDS011;10785;50.674;17.954;2022-07-06T07:44:03;22.42;;;19.38;;
21254;SDS011;10785;50.674;17.954;2022-07-06T07:46:33;16.60;;;15.00;;
21254;SDS011;10785;50.674;17.954;2022-07-06T07:49:02;9.25;;;8.05;;
21254;SDS011;10785;50.674;17.954;2022-07-06T07:51:32;6.78;;;6.18;;
21254;SDS011;10785;50.674;17.954;2022-07-06T07:54:03;7.75;;;6.97;;
21254;SDS011;10785;50.674;17.954;2022-07-06T07:56:32;7.30;;;6.07;;
21254;SDS011;10785;50.674;17.954;2022-07-06T07:59:02;7.03;;;6.32;;
21254;SDS011;10785;50.674;17.954;2022-07-06T08:01:31;6.30;;;5.63;;
21254;SDS011;10785;50.674;17.954;2022-07-06T08:04:01;6.25;;;5.65;;
21254;SDS011;10785;50.674;17.954;2022-07-06T08:06:31;6.60;;;6.07;;
21254;SDS011;10785;50.674;17.954;2022-07-06T08:09:00;6.47;;;5.88;;
21254;SDS011;10785;50.674;17.954;2022-07-06T08:11:31;10.85;;;5.70;;
21254;SDS011;10785;50.674;17.954;2022-07-06T08:13:59;7.53;;;6.57;;
21254;SDS011;10785;50.674;17.954;2022-07-06T08:16:29;8.52;;;6.20;;
21254;SDS011;10785;50.674;17.954;2022-07-06T08:19:00;11.30;;;7.07;;
21254;SDS011;10785;50.674;17.954;2022-07-06T08:21:36;7.60;;;6.70;;
21254;SDS011;10785;50.674;17.954;2022-07-06T08:24:05;7.43;;;6.30;;
21254;SDS011;10785;50.674;17.954;2022-07-06T08:26:34;7.15;;;6.53;;
21254;SDS011;10785;50.674;17.954;2022-07-06T08:29:03;8.13;;;6.63;;
21254;SDS011;10785;50.674;17.954;2022-07-06T08:31:32;8.75;;;6.70;;
21254;SDS011;10785;50.674;17.954;2022-07-06T08:34:23;27.25;;;24.85;;
21254;SDS011;10785;50.674;17.954;2022-07-06T08:36:59;16.58;;;15.05;;
21254;SDS011;10785;50.674;17.954;2022-07-06T08:39:28;14.57;;;12.38;;
21254;SDS011;10785;50.674;17.954;2022-07-06T08:41:56;17.63;;;16.02;;
21254;SDS011;10785;50.674;17.954;2022-07-06T08:44:28;23.27;;;17.48;;
21254;SDS011;10785;50.674;17.954;2022-07-06T08:46:57;14.65;;;10.68;;
21254;SDS011;10785;50.674;17.954;2022-07-06T08:49:29;13.07;;;11.75;;
21254;SDS011;10785;50.674;17.954;2022-07-06T08:51:59;14.90;;;13.43;;
21254;SDS011;10785;50.674;17.954;2022-07-06T08:54:28;9.68;;;8.07;;
21254;SDS011;10785;50.674;17.954;2022-07-06T08:56:57;8.05;;;6.25;;
21254;SDS011;10785;50.674;17.954;2022-07-06T08:59:27;8.18;;;6.32;;
21254;SDS011;10785;50.674;17.954;2022-07-06T09:01:56;5.53;;;5.03;;
21254;SDS011;10785;50.674;17.954;2022-07-06T09:04:29;7.53;;;4.90;;
21254;SDS011;10785;50.674;17.954;2022-07-06T09:07:00;9.70;;;8.70;;
21254;SDS011;10785;50.674;17.954;2022-07-06T09:09:30;6.07;;;5.10;;
21254;SDS011;10785;50.674;17.954;2022-07-06T09:11:59;5.45;;;4.60;;
21254;SDS011;10785;50.674;17.954;2022-07-06T09:14:30;4.75;;;3.83;;
21254;SDS011;10785;50.674;17.954;2022-07-06T09:17:01;6.80;;;4.40;;
21254;SDS011;10785;50.674;17.954;2022-07-06T09:19:33;7.65;;;3.67;;
21254;SDS011;10785;50.674;17.954;2022-07-06T09:22:03;4.63;;;3.70;;
21254;SDS011;10785;50.674;17.954;2022-07-06T09:24:32;3.92;;;2.88;;
21254;SDS011;10785;50.674;17.954;2022-07-06T09:27:15;7.53;;;4.57;;
21254;SDS011;10785;50.674;17.954;2022-07-06T09:29:45;6.55;;;3.60;;
21254;SDS011;10785;50.674;17.954;2022-07-06T09:32:15;4.85;;;3.60;;
21254;SDS011;10785;50.674;17.954;2022-07-06T09:34:51;4.30;;;3.83;;
21254;SDS011;10785;50.674;17.954;2022-07-06T09:37:21;4.72;;;3.53;;
21254;SDS011;10785;50.674;17.954;2022-07-06T09:39:52;22.17;;;3.97;;
21254;SDS011;10785;50.674;17.954;2022-07-06T09:42:24;3.50;;;3.08;;
21254;SDS011;10785;50.674;17.954;2022-07-06T09:44:53;5.75;;;3.53;;
21254;SDS011;10785;50.674;17.954;2022-07-06T09:47:23;5.97;;;3.40;;
21254;SDS011;10785;50.674;17.954;2022-07-06T09:49:56;4.25;;;3.50;;
21254;SDS011;10785;50.674;17.954;2022-07-06T09:52:29;4.15;;;3.33;;
21254;SDS011;10785;50.674;17.954;2022-07-06T09:55:05;5.55;;;3.33;;
21254;SDS011;10785;50.674;17.954;2022-07-06T09:57:51;4.60;;;3.88;;
21254;SDS011;10785;50.674;17.954;2022-07-06T10:00:22;4.88;;;3.80;;
21254;SDS011;10785;50.674;17.954;2022-07-06T10:02:52;5.65;;;3.70;;
21254;SDS011;10785;50.674;17.954;2022-07-06T10:05:23;8.80;;;4.22;;
21254;SDS011;10785;50.674;17.954;2022-07-06T10:07:57;8.25;;;3.75;;
21254;SDS011;10785;50.674;17.954;2022-07-06T10:10:27;8.82;;;4.22;;
21254;SDS011;10785;50.674;17.954;2022-07-06T10:12:58;4.97;;;3.30;;
21254;SDS011;10785;50.674;17.954;2022-07-06T10:15:28;11.00;;;4.32;;
21254;SDS011;10785;50.674;17.954;2022-07-06T10:17:58;5.65;;;3.90;;
21254;SDS011;10785;50.674;17.954;2022-07-06T10:20:31;3.83;;;3.53;;
21254;SDS011;10785;50.674;17.954;2022-07-06T10:23:03;4.78;;;3.83;;
21254;SDS011;10785;50.674;17.954;2022-07-06T10:25:33;5.90;;;4.10;;
21254;SDS011;10785;50.674;17.954;2022-07-06T10:28:02;6.47;;;3.92;;
21254;SDS011;10785;50.674;17.954;2022-07-06T10:30:41;6.20;;;4.10;;
21254;SDS011;10785;50.674;17.954;2022-07-06T10:33:11;13.45;;;4.13;;
21254;SDS011;10785;50.674;17.954;2022-07-06T10:35:48;8.25;;;3.85;;
21254;SDS011;10785;50.674;17.954;2022-07-06T10:38:18;6.75;;;4.25;;
21254;SDS011;10785;50.674;17.954;2022-07-06T10:40:47;6.28;;;4.30;;
21254;SDS011;10785;50.674;17.954;2022-07-06T10:43:33;5.57;;;3.85;;
21254;SDS011;10785;50.674;17.954;2022-07-06T10:46:07;7.55;;;4.47;;
21254;SDS011;10785;50.674;17.954;2022-07-06T10:48:38;5.43;;;4.32;;
21254;SDS011;10785;50.674;17.954;2022-07-06T10:51:09;5.40;;;4.28;;
21254;SDS011;10785;50.674;17.954;2022-07-06T10:53:40;6.07;;;4.05;;
21254;SDS011;10785;50.674;17.954;2022-07-06T10:56:11;6.85;;;4.40;;
21254;SDS011;10785;50.674;17.954;2022-07-06T10:58:41;8.88;;;4.47;;
21254;SDS011;10785;50.674;17.954;2022-07-06T11:01:18;15.05;;;5.53;;
21254;SDS011;10785;50.674;17.954;2022-07-06T11:03:49;8.48;;;4.68;;
21254;SDS011;10785;50.674;17.954;2022-07-06T11:06:33;5.50;;;4.20;;
21254;SDS011;10785;50.674;17.954;2022-07-06T11:09:03;5.50;;;4.65;;
21254;SDS011;10785;50.674;17.954;2022-07-06T11:11:40;7.63;;;4.45;;
21254;SDS011;10785;50.674;17.954;2022-07-06T11:14:13;5.70;;;4.53;;
21254;SDS011;10785;50.674;17.954;2022-07-06T11:16:59;5.70;;;4.55;;
21254;SDS011;10785;50.674;17.954;2022-07-06T11:19:30;5.35;;;4.00;;
21254;SDS011;10785;50.674;17.954;2022-07-06T11:22:06;7.22;;;3.33;;
21254;SDS011;10785;50.674;17.954;2022-07-06T11:24:36;6.60;;;3.70;;
21254;SDS011;10785;50.674;17.954;2022-07-06T11:27:06;3.75;;;2.90;;
21254;SDS011;10785;50.674;17.954;2022-07-06T11:29:36;5.28;;;3.03;;
21254;SDS011;10785;50.674;17.954;2022-07-06T11:32:06;3.97;;;2.83;;
21254;SDS011;10785;50.674;17.954;2022-07-06T11:34:38;5.25;;;3.33;;
21254;SDS011;10785;50.674;17.954;2022-07-06T11:37:11;5.68;;;3.60;;
21254;SDS011;10785;50.674;17.954;2022-07-06T11:39:42;4.72;;;3.35;;
21254;SDS011;10785;50.674;17.954;2022-07-06T11:42:12;3.75;;;3.20;;
21254;SDS011;10785;50.674;17.954;2022-07-06T11:44:42;4.72;;;2.70;;
21254;SDS011;10785;50.674;17.954;2022-07-06T11:47:12;6.15;;;3.58;;
21254;SDS011;10785;50.674;17.954;2022-07-06T11:49:50;4.85;;;3.03;;
21254;SDS011;10785;50.674;17.954;2022-07-06T11:52:21;4.88;;;3.05;;
21254;SDS011;10785;50.674;17.954;2022-07-06T11:54:56;4.88;;;3.05;;
21254;SDS011;10785;50.674;17.954;2022-07-06T11:57:27;5.15;;;2.63;;
21254;SDS011;10785;50.674;17.954;2022-07-06T12:00:00;4.60;;;2.47;;
21254;SDS011;10785;50.674;17.954;2022-07-06T12:02:38;5.20;;;2.80;;
21254;SDS011;10785;50.674;17.954;2022-07-06T12:05:08;3.70;;;2.17;;
21254;SDS011;10785;50.674;17.954;2022-07-06T12:07:38;4.47;;;2.28;;
21254;SDS011;10785;50.674;17.954;2022-07-06T12:10:08;5.10;;;2.20;;
21254;SDS011;10785;50.674;17.954;2022-07-06T12:12:37;5.60;;;2.30;;
21254;SDS011;10785;50.674;17.954;2022-07-06T12:15:06;6.07;;;2.40;;
21254;SDS011;10785;50.674;17.954;2022-07-06T12:17:35;3.78;;;2.13;;
21254;SDS011;10785;50.674;17.954;2022-07-06T12:20:10;8.32;;;2.40;;
21254;SDS011;10785;50.674;17.954;2022-07-06T12:22:41;6.15;;;2.20;;
21254;SDS011;10785;50.674;17.954;2022-07-06T12:25:11;6.65;;;2.33;;
21254;SDS011;10785;50.674;17.954;2022-07-06T12:27:40;3.47;;;2.00;;
21254;SDS011;10785;50.674;17.954;2022-07-06T12:30:09;3.42;;;1.90;;
21254;SDS011;10785;50.674;17.954;2022-07-06T12:32:42;4.03;;;2.03;;
21254;SDS011;10785;50.674;17.954;2022-07-06T12:35:11;3.78;;;2.30;;
21254;SDS011;10785;50.674;17.954;2022-07-06T12:37:55;7.03;;;2.20;;
21254;SDS011;10785;50.674;17.954;2022-07-06T12:40:25;5.40;;;2.33;;
21254;SDS011;10785;50.674;17.954;2022-07-06T12:42:55;4.22;;;2.33;;
21254;SDS011;10785;50.674;17.954;2022-07-06T12:45:26;2.90;;;2.10;;
21254;SDS011;10785;50.674;17.954;2022-07-06T12:47:56;6.20;;;2.50;;
21254;SDS011;10785;50.674;17.954;2022-07-06T12:50:32;2.65;;;1.90;;
21254;SDS011;10785;50.674;17.954;2022-07-06T12:53:04;3.50;;;1.92;;
21254;SDS011;10785;50.674;17.954;2022-07-06T12:55:39;4.25;;;2.05;;
21254;SDS011;10785;50.674;17.954;2022-07-06T12:58:15;8.05;;;2.22;;
21254;SDS011;10785;50.674;17.954;2022-07-06T13:00:47;4.82;;;2.30;;
21254;SDS011;10785;50.674;17.954;2022-07-06T13:03:16;4.10;;;1.58;;
21254;SDS011;10785;50.674;17.954;2022-07-06T13:05:48;2.72;;;1.83;;
21254;SDS011;10785;50.674;17.954;2022-07-06T13:08:19;2.83;;;1.83;;
21254;SDS011;10785;50.674;17.954;2022-07-06T13:10:48;2.10;;;1.63;;
21254;SDS011;10785;50.674;17.954;2022-07-06T13:13:17;2.65;;;1.70;;
21254;SDS011;10785;50.674;17.954;2022-07-06T13:15:45;3.08;;;1.77;;
21254;SDS011;10785;50.674;17.954;2022-07-06T13:18:14;6.53;;;2.08;;
21254;SDS011;10785;50.674;17.954;2022-07-06T13:20:45;6.28;;;2.40;;
21254;SDS011;10785;50.674;17.954;2022-07-06T13:23:14;4.80;;;2.60;;
21254;SDS011;10785;50.674;17.954;2022-07-06T13:25:44;5.55;;;2.67;;
21254;SDS011;10785;50.674;17.954;2022-07-06T13:28:13;6.53;;;3.17;;
21254;SDS011;10785;50.674;17.954;2022-07-06T13:30:42;5.63;;;2.95;;
21254;SDS011;10785;50.674;17.954;2022-07-06T13:33:11;6.70;;;3.25;;
21254;SDS011;10785;50.674;17.954;2022-07-06T13:35:39;5.65;;;3.63;;
21254;SDS011;10785;50.674;17.954;2022-07-06T13:38:08;6.20;;;3.75;;
21254;SDS011;10785;50.674;17.954;2022-07-06T13:40:41;5.85;;;4.00;;
21254;SDS011;10785;50.674;17.954;2022-07-06T13:43:11;7.20;;;3.70;;
21254;SDS011;10785;50.674;17.954;2022-07-06T13:45:40;6.15;;;3.65;;
21254;SDS011;10785;50.674;17.954;2022-07-06T13:48:08;6.15;;;3.60;;
21254;SDS011;10785;50.674;17.954;2022-07-06T13:50:37;6.60;;;3.75;;
21254;SDS011;10785;50.674;17.954;2022-07-06T13:53:06;7.45;;;4.03;;
21254;SDS011;10785;50.674;17.954;2022-07-06T13:55:35;4.93;;;3.20;;
21254;SDS011;10785;50.674;17.954;2022-07-06T13:58:04;6.03;;;3.40;;
21254;SDS011;10785;50.674;17.954;2022-07-06T14:00:35;4.45;;;3.70;;
21254;SDS011;10785;50.674;17.954;2022-07-06T14:03:04;4.95;;;3.70;;
21254;SDS011;10785;50.674;17.954;2022-07-06T14:05:33;6.68;;;3.67;;
21254;SDS011;10785;50.674;17.954;2022-07-06T14:08:02;3.72;;;3.05;;
21254;SDS011;10785;50.674;17.954;2022-07-06T14:10:31;7.35;;;3.85;;
21254;SDS011;10785;50.674;17.954;2022-07-06T14:13:00;7.55;;;3.85;;
21254;SDS011;10785;50.674;17.954;2022-07-06T14:15:28;7.85;;;3.63;;
21254;SDS011;10785;50.674;17.954;2022-07-06T14:17:59;6.88;;;3.22;;
21254;SDS011;10785;50.674;17.954;2022-07-06T14:20:28;8.32;;;3.65;;
21254;SDS011;10785;50.674;17.954;2022-07-06T14:22:57;5.63;;;3.65;;
21254;SDS011;10785;50.674;17.954;2022-07-06T14:25:26;6.18;;;3.40;;
21254;SDS011;10785;50.674;17.954;2022-07-06T14:27:55;6.38;;;3.85;;
21254;SDS011;10785;50.674;17.954;2022-07-06T14:30:24;9.27;;;3.17;;
21254;SDS011;10785;50.674;17.954;2022-07-06T14:32:53;6.20;;;3.30;;
21254;SDS011;10785;50.674;17.954;2022-07-06T14:35:26;5.00;;;3.35;;
21254;SDS011;10785;50.674;17.954;2022-07-06T14:37:55;6.90;;;3.08;;
21254;SDS011;10785;50.674;17.954;2022-07-06T14:40:24;6.82;;;3.53;;
21254;SDS011;10785;50.674;17.954;2022-07-06T14:42:53;7.28;;;3.67;;